Time;durP1;ratioP1;P1;durP2;ratioP2;P2;SDS_P1;SDS_P2;PMS_P1;PMS_P2;Temp;Humidity;BMP_temperature;BMP_pressure;BME280_temperature;BME280_humidity;BME280_pressure;Samples;Min_cycle;Max_cycle;Signal;HPM_P1;HPM_P2
2021/04/28 00:03:44;;;;;;;9.60;4.07;;;;;;;6.74;38.63;99594.00;10199335;28;20788;-74
2021/04/28 00:08:46;;;;;;;5.47;3.72;;;;;;;6.63;39.24;99589.50;10201747;28;20247;-73
2021/04/28 00:13:48;;;;;;;6.97;4.38;;;;;;;6.47;39.81;99584.50;10200733;28;20252;-74
2021/04/28 00:18:51;;;;;;;7.10;4.00;;;;;;;6.56;39.87;99577.63;10160799;28;20231;-74
2021/04/28 00:23:54;;;;;;;5.25;3.75;;;;;;;6.54;40.06;99580.41;10163280;28;20728;-74
2021/04/28 00:28:56;;;;;;;6.18;3.95;;;;;;;6.39;40.36;99569.09;10158467;28;20243;-74
2021/04/28 00:33:59;;;;;;;5.10;3.67;;;;;;;6.19;40.64;99567.06;10159961;28;20953;-73
2021/04/28 00:39:01;;;;;;;8.93;3.80;;;;;;;6.10;40.72;99559.78;10156688;28;20254;-73
2021/04/28 00:44:04;;;;;;;5.03;3.65;;;;;;;6.00;40.79;99553.44;10158152;28;20309;-75
2021/04/28 00:49:07;;;;;;;9.15;4.20;;;;;;;6.04;41.31;99552.25;10159401;28;20239;-74
2021/04/28 00:54:11;;;;;;;9.43;3.80;;;;;;;6.03;41.47;99548.72;10165449;28;20245;-74
2021/04/28 00:59:13;;;;;;;4.45;3.50;;;;;;;5.86;41.63;99534.00;10173738;28;20240;-73
2021/04/28 01:04:17;;;;;;;6.53;3.88;;;;;;;5.76;42.32;99532.13;10160331;28;20315;-73
2021/04/28 01:09:20;;;;;;;6.18;3.90;;;;;;;5.59;42.49;99528.91;10157956;28;20338;-75
2021/04/28 01:14:22;;;;;;;8.70;4.28;;;;;;;5.46;42.52;99528.97;10165828;28;20235;-74
2021/04/28 01:19:27;;;;;;;6.45;4.43;;;;;;;5.39;42.34;99521.53;10196799;28;20262;-74
2021/04/28 01:24:32;;;;;;;7.20;3.90;;;;;;;5.27;42.82;99525.94;10198014;28;20250;-74
2021/04/28 01:29:35;;;;;;;8.45;4.13;;;;;;;5.18;43.18;99523.94;10194285;28;20284;-73
2021/04/28 01:34:38;;;;;;;6.85;4.22;;;;;;;5.11;43.71;99523.53;10198286;28;20365;-73
2021/04/28 01:39:44;;;;;;;11.38;4.57;;;;;;;5.18;43.62;99521.28;10197835;28;20231;-73
2021/04/28 01:44:48;;;;;;;7.47;5.10;;;;;;;5.20;43.89;99522.03;10197787;28;20640;-74
2021/04/28 01:49:52;;;;;;;6.70;4.68;;;;;;;5.22;44.19;99517.44;10198428;28;20251;-73
2021/04/28 01:54:55;;;;;;;6.45;4.55;;;;;;;5.40;44.64;99508.13;10209784;28;20239;-73
2021/04/28 01:59:57;;;;;;;7.68;4.35;;;;;;;5.39;44.51;99509.06;10198702;28;20249;-73
2021/04/28 02:05:19;;;;;;;8.20;4.75;;;;;;;5.19;44.62;99507.03;10197795;28;20243;-74
2021/04/28 02:10:22;;;;;;;7.13;4.68;;;;;;;5.14;44.79;99504.69;10194251;28;20254;-73
2021/04/28 02:15:27;;;;;;;7.38;4.45;;;;;;;5.14;45.43;99495.84;10169572;28;20248;-73
2021/04/28 02:20:34;;;;;;;8.65;4.68;;;;;;;5.09;44.92;99496.19;10147047;28;20236;-73
2021/04/28 02:25:58;;;;;;;8.02;4.85;;;;;;;5.01;45.55;99488.72;10148912;28;20254;-73
2021/04/28 02:31:03;;;;;;;7.50;4.50;;;;;;;4.89;45.46;99483.44;10146017;28;20767;-73
2021/04/28 02:36:11;;;;;;;7.88;4.78;;;;;;;4.83;45.51;99485.56;10143459;28;20249;-73
2021/04/28 02:41:27;;;;;;;8.77;4.45;;;;;;;4.68;46.07;99477.81;10159055;28;20894;-74
2021/04/28 02:46:33;;;;;;;8.52;4.85;;;;;;;4.64;46.11;99473.69;10141701;28;20722;-74
2021/04/28 02:51:38;;;;;;;7.13;4.40;;;;;;;4.47;46.09;99473.06;10142785;28;20804;-73
2021/04/28 02:57:00;;;;;;;8.18;4.78;;;;;;;4.46;46.37;99475.81;10142714;28;20234;-73
2021/04/28 03:02:06;;;;;;;6.57;4.07;;;;;;;4.42;46.42;99474.34;10155934;28;20256;-73
2021/04/28 03:07:12;;;;;;;6.55;4.72;;;;;;;4.39;46.02;99476.25;10144640;28;20320;-73
2021/04/28 03:12:19;;;;;;;6.72;4.18;;;;;;;4.43;45.67;99466.25;10145304;28;20633;-73
2021/04/28 03:17:26;;;;;;;8.33;4.47;;;;;;;4.36;46.32;99476.47;10177048;28;20235;-73
2021/04/28 03:22:31;;;;;;;7.70;4.90;;;;;;;4.45;46.28;99479.47;10184444;28;20246;-73
2021/04/28 03:27:35;;;;;;;8.57;5.25;;;;;;;4.56;46.58;99469.75;10200051;28;20348;-73
2021/04/28 03:32:37;;;;;;;9.35;5.18;;;;;;;4.36;46.29;99480.91;10194392;28;20254;-73
2021/04/28 03:38:00;;;;;;;12.98;4.80;;;;;;;4.41;46.14;99473.47;10195862;28;20260;-73
2021/04/28 03:43:03;;;;;;;7.70;4.60;;;;;;;4.42;46.49;99469.03;10191068;28;21529;-74
2021/04/28 03:48:06;;;;;;;8.35;4.80;;;;;;;4.38;46.10;99471.03;10208765;28;20248;-75
2021/04/28 03:53:09;;;;;;;8.00;4.70;;;;;;;4.47;46.01;99464.22;10208673;28;20232;-74
2021/04/28 03:58:33;;;;;;;9.20;5.15;;;;;;;4.47;46.26;99464.22;10206922;28;20260;-74
2021/04/28 04:03:42;;;;;;;6.22;4.57;;;;;;;4.42;46.28;99466.38;10206720;28;20250;-74
2021/04/28 04:09:04;;;;;;;7.57;4.97;;;;;;;4.35;46.57;99479.22;10221649;28;20245;-74
2021/04/28 04:14:07;;;;;;;11.45;5.28;;;;;;;4.44;47.00;99461.78;10219066;28;20233;-73
2021/04/28 04:19:10;;;;;;;10.63;6.50;;;;;;;4.51;46.96;99460.41;10169805;28;20248;-74
2021/04/28 04:24:20;;;;;;;9.23;5.00;;;;;;;4.40;47.04;99459.34;10168266;28;20250;-74
2021/04/28 04:29:43;;;;;;;8.67;5.70;;;;;;;4.28;47.41;99460.22;10185280;28;20760;-74
2021/04/28 04:35:20;;;;;;;8.27;5.20;;;;;;;4.17;47.41;99460.94;10185220;28;20263;-74
2021/04/28 04:40:41;;;;;;;10.98;5.47;;;;;;;4.27;47.65;99470.94;10188445;28;20924;-74
2021/04/28 04:46:09;;;;;;;10.48;6.22;;;;;;;4.22;48.20;99463.28;10170849;28;20235;-73
2021/04/28 04:51:11;;;;;;;8.60;4.95;;;;;;;4.20;48.58;99469.66;10185634;28;20236;-73
2021/04/28 04:56:13;;;;;;;11.35;6.50;;;;;;;4.23;48.28;99467.66;10199099;28;20298;-74
2021/04/28 05:01:16;;;;;;;7.88;4.88;;;;;;;4.24;48.97;99460.53;10184884;28;20657;-73
2021/04/28 05:06:18;;;;;;;6.40;4.45;;;;;;;4.21;49.68;99471.38;10187253;28;20244;-73
2021/04/28 05:11:20;;;;;;;9.93;4.93;;;;;;;4.23;49.35;99477.44;10181149;28;20249;-73
2021/04/28 05:16:22;;;;;;;8.27;4.50;;;;;;;4.28;48.79;99480.59;10205876;28;20263;-73
2021/04/28 05:21:24;;;;;;;6.43;5.00;;;;;;;4.41;49.05;99473.47;10220995;28;20642;-74
2021/04/28 05:26:27;;;;;;;7.68;5.03;;;;;;;4.46;49.45;99476.66;10205234;28;20254;-74
2021/04/28 05:31:30;;;;;;;7.50;5.03;;;;;;;4.67;49.14;99468.16;10222162;28;20620;-73
2021/04/28 05:36:32;;;;;;;7.05;4.90;;;;;;;4.87;48.82;99467.56;10222351;28;21010;-74
2021/04/28 05:41:34;;;;;;;7.93;5.25;;;;;;;5.15;47.61;99468.25;10170075;28;20635;-73
2021/04/28 05:46:38;;;;;;;7.50;5.32;;;;;;;5.45;46.76;99460.66;10177904;28;20242;-74
2021/04/28 05:51:40;;;;;;;10.52;5.72;;;;;;;5.60;45.31;99448.03;10179510;28;20253;-73
2021/04/28 05:56:43;;;;;;;9.68;5.22;;;;;;;5.82;46.15;99441.94;10199679;28;20695;-73
2021/04/28 06:01:49;;;;;;;8.98;5.55;;;;;;;6.03;45.00;99444.75;10217961;28;20245;-73
2021/04/28 06:06:51;;;;;;;12.20;5.38;;;;;;;6.27;44.43;99447.34;10217636;28;20327;-73
2021/04/28 06:11:53;;;;;;;11.52;5.47;;;;;;;6.53;44.27;99452.47;10218631;28;20620;-74
2021/04/28 06:16:58;;;;;;;11.00;5.40;;;;;;;6.80;43.20;99447.59;10188004;28;20247;-73
2021/04/28 06:22:00;;;;;;;9.45;5.82;;;;;;;6.97;43.11;99454.28;10177843;28;20242;-73
2021/04/28 06:27:05;;;;;;;10.40;6.22;;;;;;;7.33;43.29;99448.72;10155880;28;20241;-73
2021/04/28 06:32:09;;;;;;;6.85;5.35;;;;;;;7.68;42.46;99443.97;10108325;28;20238;-75
2021/04/28 06:37:11;;;;;;;9.25;6.28;;;;;;;7.99;42.63;99437.84;10101022;28;20262;-73
2021/04/28 06:42:14;;;;;;;10.60;6.50;;;;;;;8.26;41.04;99440.00;10101195;28;20247;-74
2021/04/28 06:47:16;;;;;;;6.78;5.10;;;;;;;8.68;41.52;99431.91;10101543;28;20240;-73
2021/04/28 06:52:19;;;;;;;9.27;4.32;;;;;;;8.99;40.91;99422.81;10160751;28;20659;-75
2021/04/28 06:57:21;;;;;;;8.80;6.00;;;;;;;9.35;40.24;99414.25;10174826;28;20227;-73
2021/04/28 07:02:24;;;;;;;12.13;6.40;;;;;;;9.45;39.21;99425.84;10142860;28;20242;-73
2021/04/28 07:07:26;;;;;;;10.02;6.43;;;;;;;9.51;38.59;99412.72;10136608;28;21393;-75
2021/04/28 07:12:28;;;;;;;9.13;5.53;;;;;;;9.89;38.30;99415.56;10134621;28;20268;-75
2021/04/28 07:17:31;;;;;;;9.57;6.30;;;;;;;10.45;38.17;99420.09;10170231;28;20247;-75
2021/04/28 07:22:33;;;;;;;10.52;6.30;;;;;;;10.69;35.85;99416.00;10177468;28;20385;-74
2021/04/28 07:27:35;;;;;;;10.07;6.07;;;;;;;10.69;37.13;99414.16;10206845;23;20237;-70
2021/04/28 07:32:38;;;;;;;9.73;5.60;;;;;;;10.99;36.35;99410.31;10204250;28;20198;-70
2021/04/28 07:37:40;;;;;;;9.20;6.63;;;;;;;11.04;36.37;99412.56;10173181;28;20259;-69
2021/04/28 07:42:42;;;;;;;7.90;5.75;;;;;;;11.59;35.83;99404.41;10177047;28;20195;-71
2021/04/28 07:47:45;;;;;;;8.10;5.80;;;;;;;12.14;35.05;99404.16;10181851;28;20303;-71
2021/04/28 07:52:49;;;;;;;10.07;6.50;;;;;;;11.90;33.85;99403.97;10183512;28;20206;-71
2021/04/28 07:57:51;;;;;;;11.25;6.45;;;;;;;12.15;34.80;99413.09;10184094;28;20688;-71
2021/04/28 08:02:54;;;;;;;10.02;7.32;;;;;;;12.35;33.86;99401.13;10186113;28;20206;-71
2021/04/28 08:07:56;;;;;;;11.15;6.40;;;;;;;12.76;33.58;99397.78;10192420;28;20312;-71
2021/04/28 08:12:59;;;;;;;8.07;5.75;;;;;;;13.04;33.54;99399.22;10196082;28;20561;-71
2021/04/28 08:18:03;;;;;;;10.73;6.43;;;;;;;13.08;34.04;99396.19;10246957;28;20234;-71
2021/04/28 08:23:05;;;;;;;10.82;7.38;;;;;;;13.40;33.01;99395.44;10234856;28;20213;-71
2021/04/28 08:28:07;;;;;;;11.05;7.40;;;;;;;13.44;33.21;99384.16;10235568;28;20250;-71
2021/04/28 08:33:10;;;;;;;13.20;6.63;;;;;;;14.13;32.57;99387.34;10234553;28;20210;-73
2021/04/28 08:38:12;;;;;;;10.48;7.13;;;;;;;14.42;32.49;99388.63;10228943;28;20306;-73
2021/04/28 08:43:14;;;;;;;10.90;7.60;;;;;;;14.65;31.65;99393.31;10235574;28;20206;-73
2021/04/28 08:48:21;;;;;;;11.05;6.97;;;;;;;15.23;31.47;99383.88;10236801;28;20219;-73
2021/04/28 08:53:24;;;;;;;10.10;7.10;;;;;;;14.94;31.57;99395.38;10235654;28;20689;-73
2021/04/28 08:58:26;;;;;;;13.80;7.88;;;;;;;15.68;31.03;99391.19;10214290;28;20221;-73
2021/04/28 09:03:40;;;;;;;11.85;7.47;;;;;;;15.95;31.28;99380.81;10149389;28;20193;-73
2021/04/28 09:08:47;;;;;;;12.38;8.02;;;;;;;16.66;29.34;99375.84;10151121;28;20242;-73
2021/04/28 09:14:04;;;;;;;10.90;7.10;;;;;;;17.00;30.11;99379.78;10119785;28;20753;-72
2021/04/28 09:19:18;;;;;;;10.32;7.57;;;;;;;17.36;29.26;99371.69;10184818;28;20285;-73
2021/04/28 09:24:58;;;;;;;12.75;8.20;;;;;;;17.27;29.69;99358.44;10184954;28;20278;-72
2021/04/28 09:30:27;;;;;;;10.80;7.28;;;;;;;17.75;29.22;99356.81;10180879;28;20246;-72
2021/04/28 09:35:30;;;;;;;11.40;7.85;;;;;;;18.31;27.67;99355.97;10194960;28;20239;-72
2021/04/28 09:40:43;;;;;;;15.32;8.05;;;;;;;18.83;27.11;99348.31;10200426;28;20307;-72
2021/04/28 09:45:47;;;;;;;12.45;8.25;;;;;;;18.26;28.17;99344.88;10214260;28;20326;-72
2021/04/28 09:51:02;;;;;;;13.13;8.50;;;;;;;18.88;28.41;99329.50;10200467;28;20639;-72
2021/04/28 09:56:16;;;;;;;11.85;8.82;;;;;;;18.97;27.96;99331.00;10198523;28;20471;-72
2021/04/28 10:01:30;;;;;;;14.75;8.90;;;;;;;18.70;27.54;99330.88;10203990;28;20257;-72
2021/04/28 10:06:44;;;;;;;10.13;7.68;;;;;;;19.39;27.68;99327.13;10202731;28;20243;-72
2021/04/28 10:11:45;;;;;;;13.40;8.50;;;;;;;19.68;25.84;99317.72;10202771;28;20626;-72
2021/04/28 10:16:48;;;;;;;13.88;7.80;;;;;;;19.60;27.03;99314.38;10174419;28;20927;-72
2021/04/28 10:21:52;;;;;;;10.30;7.60;;;;;;;19.59;25.94;99301.81;10159769;28;21433;-72
2021/04/28 10:26:55;;;;;;;12.65;7.70;;;;;;;20.10;25.37;99307.44;10154931;28;20318;-72
2021/04/28 10:31:59;;;;;;;11.27;7.97;;;;;;;20.00;25.17;99304.31;10164440;28;20235;-72
2021/04/28 10:37:05;;;;;;;11.38;7.53;;;;;;;20.02;25.26;99309.53;10159928;28;21541;-72
2021/04/28 10:42:28;;;;;;;13.13;7.75;;;;;;;20.82;24.65;99304.72;10161008;28;20305;-73
2021/04/28 10:47:35;;;;;;;12.15;7.50;;;;;;;21.39;23.88;99286.53;10161811;28;20251;-72
2021/04/28 10:52:43;;;;;;;14.60;9.13;;;;;;;21.21;23.97;99286.44;10136425;28;20244;-73
2021/04/28 10:57:45;;;;;;;13.57;8.00;;;;;;;22.11;23.97;99273.28;10157116;28;20333;-73
2021/04/28 11:02:47;;;;;;;14.82;8.50;;;;;;;22.58;23.39;99270.03;10161334;28;20244;-73
2021/04/28 11:07:54;;;;;;;13.60;8.52;;;;;;;21.87;22.35;99269.53;10157757;28;20469;-73
2021/04/28 11:13:07;;;;;;;15.48;8.05;;;;;;;22.30;23.46;99260.44;10156829;28;20237;-73
2021/04/28 11:18:30;;;;;;;14.55;8.75;;;;;;;22.31;21.99;99251.16;10193964;28;21882;-73
2021/04/28 11:23:33;;;;;;;12.85;6.53;;;;;;;23.38;22.10;99244.25;10195740;28;20615;-73
2021/04/28 11:28:36;;;;;;;12.32;7.85;;;;;;;23.64;21.15;99246.56;10196474;28;20250;-73
2021/04/28 11:33:38;;;;;;;13.40;7.68;;;;;;;23.91;21.55;99232.38;10197385;28;20226;-73
2021/04/28 11:38:44;;;;;;;12.00;7.90;;;;;;;23.97;21.53;99230.56;10196442;28;20274;-73
2021/04/28 11:43:48;;;;;;;11.45;7.38;;;;;;;24.90;20.66;99218.53;10196140;28;20282;-73
2021/04/28 11:48:53;;;;;;;11.43;7.45;;;;;;;24.67;19.96;99219.44;10192357;28;20253;-73
2021/04/28 11:53:59;;;;;;;12.65;8.05;;;;;;;24.23;19.85;99216.34;10190188;28;20251;-73
2021/04/28 11:59:03;;;;;;;15.88;7.88;;;;;;;24.32;20.07;99205.81;10183756;28;21511;-74
2021/04/28 12:04:07;;;;;;;10.27;7.57;;;;;;;24.21;20.42;99209.44;10173320;28;20239;-75
2021/04/28 12:09:16;;;;;;;13.18;8.25;;;;;;;23.84;20.31;99213.31;10145384;28;20248;-75
2021/04/28 12:14:24;;;;;;;11.68;7.25;;;;;;;22.89;22.18;99210.66;10153858;28;20239;-73
2021/04/28 12:19:27;;;;;;;11.55;7.80;;;;;;;25.38;20.45;99194.34;10183187;28;20733;-73
2021/04/28 12:24:32;;;;;;;10.38;7.47;;;;;;;27.96;18.57;99194.97;10183482;28;20238;-74
2021/04/28 12:29:34;;;;;;;11.60;7.50;;;;;;;28.93;17.36;99190.66;10191903;28;20235;-73
2021/04/28 12:34:38;;;;;;;9.95;6.95;;;;;;;28.14;17.59;99189.03;10196384;28;20406;-73
2021/04/28 12:39:46;;;;;;;11.40;7.40;;;;;;;26.79;18.18;99181.91;10200180;28;20239;-73
2021/04/28 12:44:50;;;;;;;10.45;7.53;;;;;;;25.26;19.38;99180.69;10200874;28;20245;-73
2021/04/28 12:50:10;;;;;;;11.00;6.85;;;;;;;26.08;19.44;99174.50;10198832;28;20305;-73
2021/04/28 12:55:30;;;;;;;10.70;7.10;;;;;;;26.17;18.06;99176.78;10179799;28;20260;-73
2021/04/28 13:00:34;;;;;;;12.00;7.18;;;;;;;25.94;19.35;99172.34;10175431;28;20748;-73
2021/04/28 13:05:38;;;;;;;12.25;7.93;;;;;;;25.80;19.24;99153.47;10167147;28;20235;-72
2021/04/28 13:10:58;;;;;;;8.80;6.88;;;;;;;25.64;19.55;99146.09;10173017;28;20247;-73
2021/04/28 13:16:01;;;;;;;9.30;6.63;;;;;;;26.08;18.54;99148.88;10158848;28;20239;-73
2021/04/28 13:21:22;;;;;;;12.52;7.13;;;;;;;26.60;19.24;99140.13;10148491;28;20256;-72
2021/04/28 13:26:25;;;;;;;11.80;7.85;;;;;;;26.59;18.64;99143.97;10149063;28;20243;-72
2021/04/28 13:31:28;;;;;;;9.95;6.13;;;;;;;26.65;18.70;99133.84;10151179;28;20235;-73
2021/04/28 13:36:34;;;;;;;9.00;6.57;;;;;;;27.51;18.26;99121.88;10154523;28;20246;-73
2021/04/28 13:41:38;;;;;;;8.73;6.05;;;;;;;26.54;17.13;99121.06;10153772;28;20241;-73
2021/04/28 13:46:40;;;;;;;9.10;6.65;;;;;;;26.24;17.77;99108.66;10154088;28;20243;-73
2021/04/28 13:51:42;;;;;;;10.90;7.32;;;;;;;26.83;17.95;99110.66;10155328;28;20244;-72
2021/04/28 13:56:46;;;;;;;8.43;7.05;;;;;;;26.84;18.33;99099.34;10195682;28;20343;-72
2021/04/28 14:01:48;;;;;;;8.65;6.35;;;;;;;27.73;17.68;99096.91;10164117;28;20611;-73
2021/04/28 14:06:50;;;;;;;8.68;5.82;;;;;;;26.69;17.89;99091.75;10132185;28;20231;-72
2021/04/28 14:11:53;;;;;;;10.52;6.18;;;;;;;26.76;17.39;99071.44;10124551;28;21505;-73
2021/04/28 14:16:55;;;;;;;7.63;5.88;;;;;;;26.71;17.63;99072.22;10163884;28;20242;-73
2021/04/28 14:21:57;;;;;;;9.93;6.00;;;;;;;26.24;17.35;99059.94;10183908;28;21405;-73
2021/04/28 14:27:00;;;;;;;9.00;5.70;;;;;;;26.60;17.53;99046.50;10182641;28;20816;-73
2021/04/28 14:32:04;;;;;;;8.52;6.03;;;;;;;27.10;16.86;99049.97;10184441;28;20240;-73
2021/04/28 14:37:07;;;;;;;6.97;5.88;;;;;;;25.22;17.85;99044.91;10158491;28;20254;-73
2021/04/28 14:42:10;;;;;;;7.57;5.70;;;;;;;25.67;18.15;99035.63;10164450;28;20244;-73
2021/04/28 14:47:12;;;;;;;8.43;5.95;;;;;;;27.04;17.21;99028.97;10160352;28;20241;-72
2021/04/28 14:52:18;;;;;;;10.23;5.68;;;;;;;26.45;17.16;99021.63;10162285;28;20736;-72
2021/04/28 14:57:21;;;;;;;10.45;6.13;;;;;;;25.93;18.34;99013.91;10163357;28;20242;-72
2021/04/28 15:02:23;;;;;;;7.43;5.80;;;;;;;26.64;16.97;99017.38;10162051;28;20915;-72
2021/04/28 15:07:25;;;;;;;9.18;5.82;;;;;;;26.87;16.67;99007.91;10168335;28;20270;-73
2021/04/28 15:12:28;;;;;;;9.82;5.70;;;;;;;27.06;16.98;98999.22;10159700;28;20239;-72
2021/04/28 15:17:30;;;;;;;9.15;6.40;;;;;;;25.84;17.77;99003.38;10145368;28;20260;-72
2021/04/28 15:22:32;;;;;;;7.25;6.30;;;;;;;25.40;17.82;98994.31;10143653;28;20685;-73
2021/04/28 15:27:35;;;;;;;9.73;5.88;;;;;;;25.57;18.28;98997.81;10141573;28;20636;-72
2021/04/28 15:32:37;;;;;;;7.57;5.53;;;;;;;25.87;17.91;98999.28;10142197;28;20931;-72
2021/04/28 15:37:39;;;;;;;8.63;6.28;;;;;;;23.76;19.10;98997.13;10142939;28;20302;-72
2021/04/28 15:42:42;;;;;;;8.52;6.22;;;;;;;23.32;20.29;98999.47;10159671;28;20249;-72
2021/04/28 15:47:44;;;;;;;7.90;5.78;;;;;;;22.96;20.06;98989.63;10179226;28;20242;-72
2021/04/28 15:52:46;;;;;;;9.70;5.72;;;;;;;22.22;21.75;99003.69;10179913;28;20233;-72
2021/04/28 15:57:49;;;;;;;11.52;6.38;;;;;;;21.65;22.44;98998.56;10178788;28;20621;-70
2021/04/28 16:02:52;;;;;;;11.55;5.80;;;;;;;21.39;22.87;98994.28;10179483;28;20245;-70
2021/04/28 16:07:54;;;;;;;8.85;5.95;;;;;;;21.58;22.80;98995.06;10184457;28;20282;-71
2021/04/28 16:12:57;;;;;;;7.80;6.03;;;;;;;21.66;22.47;98983.81;10187201;28;20247;-71
2021/04/28 16:17:59;;;;;;;8.25;6.32;;;;;;;21.36;24.00;98983.78;10139422;28;20240;-71
2021/04/28 16:23:01;;;;;;;9.52;6.68;;;;;;;21.10;24.18;98978.66;10140494;28;20236;-71
2021/04/28 16:28:04;;;;;;;10.13;7.28;;;;;;;21.36;24.13;98975.59;10128665;28;20720;-71
2021/04/28 16:33:06;;;;;;;10.43;5.88;;;;;;;20.90;24.29;98965.19;10132919;28;20245;-71
2021/04/28 16:38:09;;;;;;;13.85;6.20;;;;;;;20.39;24.66;98972.59;10123892;28;20239;-70
2021/04/28 16:43:11;;;;;;;11.55;6.20;;;;;;;20.37;24.80;98973.88;10145686;28;20247;-70
2021/04/28 16:48:13;;;;;;;8.07;5.43;;;;;;;20.22;24.81;98971.47;10136803;28;20725;-70
2021/04/28 16:53:16;;;;;;;10.48;6.07;;;;;;;20.18;24.45;98956.59;10106143;28;20255;-70
2021/04/28 16:58:18;;;;;;;10.32;6.55;;;;;;;20.07;25.24;98949.97;10102783;28;20249;-71
2021/04/28 17:03:33;;;;;;;9.27;6.80;;;;;;;19.96;24.87;98954.22;10115297;28;20233;-71
2021/04/28 17:08:34;;;;;;;7.85;5.68;;;;;;;19.95;25.53;98949.84;10106327;28;20236;-70
2021/04/28 17:13:38;;;;;;;9.38;6.70;;;;;;;19.95;25.39;98941.66;10116077;28;20328;-71
2021/04/28 17:18:40;;;;;;;10.57;6.15;;;;;;;20.03;25.23;98940.56;10183493;28;20239;-70
2021/04/28 17:23:42;;;;;;;10.43;6.03;;;;;;;19.97;25.89;98925.94;10143467;28;20250;-70
2021/04/28 17:28:45;;;;;;;9.98;5.57;;;;;;;19.80;25.94;98925.66;10140541;28;20254;-70
2021/04/28 17:33:47;;;;;;;8.75;5.18;;;;;;;19.34;27.96;98926.72;10131966;28;20242;-70
2021/04/28 17:38:49;;;;;;;13.15;8.52;;;;;;;18.89;30.07;98934.00;10158242;28;20263;-70
2021/04/28 17:43:52;;;;;;;14.00;9.23;;;;;;;18.49;30.88;98931.34;10155815;28;20238;-70
2021/04/28 17:48:54;;;;;;;16.55;10.55;;;;;;;18.15;31.08;98965.81;10110061;28;20264;-71
2021/04/28 17:53:56;;;;;;;14.30;9.05;;;;;;;17.68;31.60;98973.03;10107908;28;21528;-70
2021/04/28 17:58:59;;;;;;;9.40;7.15;;;;;;;17.03;34.40;98988.78;10110062;28;20252;-70
2021/04/28 18:04:00;;;;;;;11.52;7.82;;;;;;;16.43;42.83;98979.41;10116216;28;20819;-71
2021/04/28 18:09:03;;;;;;;9.85;7.05;;;;;;;16.39;39.80;98984.41;10122200;28;20383;-70
2021/04/28 18:14:06;;;;;;;10.68;7.03;;;;;;;16.84;36.13;99006.66;10122447;28;20340;-70
2021/04/28 18:19:09;;;;;;;14.20;7.75;;;;;;;16.28;37.68;99018.28;10107061;28;20347;-70
2021/04/28 18:24:12;;;;;;;12.73;7.38;;;;;;;14.16;56.38;99045.91;10108252;28;20247;-70
2021/04/28 18:29:15;;;;;;;10.45;8.07;;;;;;;13.09;60.91;99042.06;10108231;28;20939;-72
2021/04/28 18:34:17;;;;;;;12.90;7.93;;;;;;;13.44;59.75;99029.97;10105758;28;20359;-72
2021/04/28 18:39:18;;;;;;;12.65;8.32;;;;;;;13.80;59.41;99024.88;10131406;28;20248;-71
2021/04/28 18:44:21;;;;;;;11.65;8.30;;;;;;;13.98;61.58;99013.78;10159069;28;20252;-70
2021/04/28 18:49:23;;;;;;;11.43;7.80;;;;;;;14.05;63.19;99003.13;10141543;28;20240;-70
2021/04/28 18:54:25;;;;;;;11.43;8.65;;;;;;;14.05;59.60;99003.13;10143808;28;20298;-70
2021/04/28 18:59:28;;;;;;;11.55;8.32;;;;;;;14.22;61.17;99015.47;10145126;28;20238;-70
2021/04/28 19:04:30;;;;;;;12.70;9.20;;;;;;;14.28;57.09;99009.34;10144067;28;20239;-70
2021/04/28 19:09:32;;;;;;;12.30;8.32;;;;;;;14.43;56.81;99000.50;10146113;28;20247;-71
2021/04/28 19:14:36;;;;;;;13.40;8.55;;;;;;;14.56;53.18;98995.28;10154046;28;20247;-70
2021/04/28 19:19:38;;;;;;;15.00;8.85;;;;;;;14.55;51.25;98999.00;10124436;28;20895;-71
2021/04/28 19:24:40;;;;;;;13.88;9.02;;;;;;;14.52;48.76;98992.09;10125399;28;20252;-71
2021/04/28 19:29:43;;;;;;;10.50;8.35;;;;;;;14.54;48.67;99000.03;10123534;28;20274;-71
2021/04/28 19:34:45;;;;;;;12.30;8.60;;;;;;;14.55;47.80;98988.19;10107135;28;20236;-71
2021/04/28 19:39:49;;;;;;;10.45;8.50;;;;;;;14.53;46.84;98993.78;10114204;28;20235;-71
2021/04/28 19:44:51;;;;;;;10.43;8.43;;;;;;;14.47;46.46;98981.00;10127013;28;20257;-71
2021/04/28 19:49:54;;;;;;;12.77;8.50;;;;;;;14.44;45.92;98985.94;10129318;28;20238;-71
2021/04/28 19:54:55;;;;;;;12.55;8.90;;;;;;;14.44;46.49;98996.75;10127673;28;21112;-71
2021/04/28 19:59:58;;;;;;;16.00;9.60;;;;;;;14.49;46.45;99000.59;10138362;28;25506;-71
2021/04/28 20:05:01;;;;;;;11.57;8.40;;;;;;;14.43;45.90;99000.50;10095030;28;20236;-72
2021/04/28 20:10:04;;;;;;;13.20;8.73;;;;;;;14.55;45.50;99002.53;10091132;28;20246;-72
2021/04/28 20:15:08;;;;;;;12.82;8.63;;;;;;;14.37;45.64;98977.69;10073837;28;20236;-71
2021/04/28 20:20:12;;;;;;;16.73;9.13;;;;;;;14.24;46.56;98974.78;10204510;28;20255;-71
2021/04/28 20:25:15;;;;;;;12.35;8.88;;;;;;;14.18;48.12;98968.25;10214530;28;20586;-70
2021/04/28 20:30:19;;;;;;;13.45;8.95;;;;;;;13.84;50.60;98966.81;10208666;28;20240;-71
2021/04/28 20:35:22;;;;;;;14.38;9.82;;;;;;;13.64;51.82;98949.44;10210888;28;20608;-71
2021/04/28 20:40:24;;;;;;;13.60;9.93;;;;;;;13.55;50.72;98942.41;10209841;28;20607;-71
2021/04/28 20:45:27;;;;;;;14.65;10.23;;;;;;;13.60;50.15;98934.63;10191209;28;20244;-71
2021/04/28 20:50:29;;;;;;;13.40;9.55;;;;;;;13.65;49.38;98930.34;10192592;28;20247;-71
2021/04/28 20:55:31;;;;;;;14.45;9.50;;;;;;;13.59;48.37;98923.00;10191550;28;20241;-71
2021/04/28 21:00:34;;;;;;;14.02;9.75;;;;;;;13.59;47.99;98925.69;10190472;28;20667;-71
2021/04/28 21:05:36;;;;;;;12.75;9.27;;;;;;;13.56;47.68;98920.66;10206685;28;20233;-71
2021/04/28 21:10:38;;;;;;;13.77;9.93;;;;;;;13.57;47.53;98914.22;10193326;28;20245;-71
2021/04/28 21:15:42;;;;;;;12.30;9.98;;;;;;;13.62;47.69;98922.63;10247801;28;20243;-71
2021/04/28 21:20:44;;;;;;;14.32;9.30;;;;;;;13.63;47.51;98926.16;10309183;28;20243;-71
2021/04/28 21:25:46;;;;;;;13.73;9.95;;;;;;;13.48;47.21;98918.84;10311273;28;20728;-71
2021/04/28 21:30:49;;;;;;;14.38;10.10;;;;;;;13.47;47.27;98930.66;10309143;28;20260;-71
2021/04/28 21:35:51;;;;;;;14.00;10.10;;;;;;;13.45;47.60;98935.38;10273112;28;20924;-71
2021/04/28 21:40:52;;;;;;;17.55;10.45;;;;;;;13.35;47.47;98929.34;10267196;28;20228;-71
2021/04/28 21:45:55;;;;;;;14.13;10.02;;;;;;;13.33;47.75;98936.78;10252011;28;20236;-71
2021/04/28 21:50:57;;;;;;;15.80;9.88;;;;;;;13.33;47.47;98944.03;10248725;28;20287;-71
2021/04/28 21:55:59;;;;;;;14.55;10.23;;;;;;;13.34;47.48;98949.25;10249922;28;20622;-71
2021/04/28 22:01:02;;;;;;;16.40;10.05;;;;;;;13.34;47.72;98940.31;10249939;28;20319;-71
2021/04/28 22:06:04;;;;;;;13.48;10.43;;;;;;;13.30;47.97;98937.13;10246844;28;20646;-71
2021/04/28 22:11:06;;;;;;;13.57;10.13;;;;;;;13.25;47.89;98939.53;10247051;28;20232;-71
2021/04/28 22:16:09;;;;;;;16.33;10.25;;;;;;;13.27;47.81;98945.56;10274735;28;21508;-71
2021/04/28 22:21:11;;;;;;;14.35;9.55;;;;;;;13.24;47.95;98940.53;10306928;28;20234;-71
2021/04/28 22:26:13;;;;;;;13.65;10.38;;;;;;;13.26;48.18;98938.50;10308544;28;20239;-71
2021/04/28 22:31:16;;;;;;;15.80;10.07;;;;;;;13.23;48.02;98941.56;10309986;28;20246;-71
2021/04/28 22:36:18;;;;;;;14.52;10.27;;;;;;;13.19;47.86;98938.38;10307238;28;20556;-71
2021/04/28 22:41:21;;;;;;;13.60;9.52;;;;;;;13.19;47.74;98933.00;10307914;28;20235;-71
2021/04/28 22:46:23;;;;;;;14.55;10.07;;;;;;;13.22;47.51;98937.19;10308966;28;20927;-71
2021/04/28 22:51:25;;;;;;;15.15;10.90;;;;;;;13.25;47.57;98928.75;10307030;28;20234;-71
2021/04/28 22:56:27;;;;;;;13.73;10.32;;;;;;;13.18;47.60;98925.06;10307630;28;21585;-72
2021/04/28 23:01:30;;;;;;;15.48;9.85;;;;;;;13.18;47.94;98928.59;10308911;28;20246;-72
2021/04/28 23:06:32;;;;;;;12.20;9.50;;;;;;;13.21;47.88;98933.63;10308117;28;20247;-72
2021/04/28 23:11:34;;;;;;;16.50;10.10;;;;;;;13.17;47.98;98934.19;10304836;28;20244;-71
2021/04/28 23:16:37;;;;;;;17.55;10.75;;;;;;;13.07;48.27;98938.94;10280152;28;20238;-71
2021/04/28 23:21:39;;;;;;;16.60;10.52;;;;;;;12.97;48.49;98926.53;10263964;28;20347;-71
2021/04/28 23:26:41;;;;;;;15.80;10.10;;;;;;;12.98;48.65;98925.50;10265036;28;20247;-71
2021/04/28 23:31:44;;;;;;;15.48;10.32;;;;;;;12.94;48.73;98923.31;10264416;28;20901;-71